createdAt,value
2017-10-02T00:01:26.800Z,25.23
2017-10-02T00:03:53.220Z,20.00
2017-10-02T00:06:19.632Z,18.13
2017-10-02T00:08:46.029Z,19.43
2017-10-02T00:11:13.178Z,19.97
2017-10-02T00:13:40.389Z,17.20
2017-10-02T00:16:06.788Z,17.00
2017-10-02T00:18:33.181Z,15.83
2017-10-02T00:20:59.602Z,17.07
2017-10-02T00:23:26.014Z,17.37
2017-10-02T00:25:52.412Z,16.20
2017-10-02T00:28:18.816Z,16.97
2017-10-02T00:30:45.970Z,17.17
2017-10-02T00:33:13.184Z,17.17
2017-10-02T00:35:39.608Z,17.17
2017-10-02T00:38:06.026Z,16.93
2017-10-02T00:40:32.477Z,15.43
2017-10-02T00:42:58.977Z,17.43
2017-10-02T00:45:25.406Z,15.57
2017-10-02T00:47:51.826Z,17.00
2017-10-02T00:50:19.020Z,16.43
2017-10-02T00:52:45.470Z,15.50
2017-10-02T00:55:11.995Z,14.93
2017-10-02T00:57:38.434Z,15.03
2017-10-02T01:00:04.836Z,15.73
2017-10-02T01:02:31.438Z,16.90
2017-10-02T01:04:58.599Z,14.90
2017-10-02T01:07:25.749Z,15.77
2017-10-02T01:09:52.950Z,15.27
2017-10-02T01:12:19.348Z,14.73
2017-10-02T01:14:45.829Z,15.10
2017-10-02T01:17:12.270Z,14.67
2017-10-02T01:19:38.689Z,15.90
2017-10-02T01:22:05.117Z,14.80
2017-10-02T01:24:31.540Z,16.17
2017-10-02T01:26:57.948Z,17.27
2017-10-02T01:29:24.351Z,20.03
2017-10-02T01:31:51.513Z,16.23
2017-10-02T01:34:18.671Z,18.30
2017-10-02T01:36:45.080Z,17.40
2017-10-02T01:39:13.013Z,17.50
2017-10-02T01:41:39.424Z,16.50
2017-10-02T01:44:05.837Z,15.13
2017-10-02T01:46:32.250Z,17.47
2017-10-02T01:48:59.407Z,15.83
2017-10-02T01:51:26.616Z,16.90
2017-10-02T01:53:53.017Z,17.70
2017-10-02T01:56:19.413Z,19.00
2017-10-02T01:58:46.624Z,17.73
2017-10-02T02:01:13.049Z,18.30
2017-10-02T02:03:39.445Z,17.20
2017-10-02T02:06:06.660Z,19.07
2017-10-02T02:08:33.047Z,17.63
2017-10-02T02:10:59.452Z,17.20
2017-10-02T02:13:26.621Z,16.90
2017-10-02T02:15:53.009Z,20.50
2017-10-02T02:18:19.405Z,17.20
2017-10-02T02:20:45.839Z,16.53
2017-10-02T02:23:12.230Z,16.97
2017-10-02T02:25:39.371Z,16.53
2017-10-02T02:28:06.536Z,18.33
2017-10-02T02:30:33.788Z,17.03
2017-10-02T02:33:00.964Z,16.50
2017-10-02T02:35:27.397Z,17.90
2017-10-02T02:37:53.801Z,16.83
2017-10-02T02:40:20.971Z,18.40
2017-10-02T02:42:47.378Z,17.67
2017-10-02T02:45:14.511Z,16.20
2017-10-02T02:47:40.908Z,15.87
2017-10-02T02:50:07.307Z,15.70
2017-10-02T02:52:34.471Z,16.00
2017-10-02T02:55:00.889Z,19.23
2017-10-02T02:57:27.301Z,20.27
2017-10-02T02:59:53.735Z,19.40
2017-10-02T03:02:20.909Z,18.70
2017-10-02T03:04:47.308Z,17.40
2017-10-02T03:07:13.711Z,18.70
2017-10-02T03:09:40.242Z,19.17
2017-10-02T03:12:06.675Z,19.10
2017-10-02T03:14:33.073Z,19.57
2017-10-02T03:16:59.488Z,17.23
2017-10-02T03:19:26.658Z,19.87
2017-10-02T03:21:53.052Z,19.70
2017-10-02T03:24:19.460Z,18.57
2017-10-02T03:26:45.852Z,17.70
2017-10-02T03:29:12.284Z,17.80
2017-10-02T03:31:38.678Z,17.23
2017-10-02T03:34:05.898Z,16.20
2017-10-02T03:36:32.305Z,15.60
2017-10-02T03:38:58.750Z,16.77
2017-10-02T03:41:25.148Z,15.60
2017-10-02T03:43:52.292Z,16.37
2017-10-02T03:46:19.416Z,16.73
2017-10-02T03:48:45.812Z,16.33
2017-10-02T03:51:12.260Z,14.20
2017-10-02T03:53:38.676Z,17.40
2017-10-02T03:56:05.094Z,17.30
2017-10-02T03:58:31.503Z,18.40
2017-10-02T04:00:58.667Z,18.90
2017-10-02T04:03:25.180Z,19.50
2017-10-02T04:05:51.584Z,21.87
2017-10-02T04:08:18.005Z,18.40
2017-10-02T04:10:44.592Z,17.90
2017-10-02T04:13:11.811Z,18.53
2017-10-02T04:15:38.209Z,18.80
2017-10-02T04:18:04.667Z,17.23
2017-10-02T04:20:31.070Z,20.50
2017-10-02T04:22:57.500Z,17.60
2017-10-02T04:25:23.870Z,18.03
2017-10-02T04:27:50.263Z,18.20
2017-10-02T04:30:16.679Z,17.40
2017-10-02T04:32:43.872Z,19.03
2017-10-02T04:35:10.281Z,18.57
2017-10-02T04:37:36.708Z,18.30
2017-10-02T04:40:03.114Z,17.30
2017-10-02T04:42:30.314Z,20.27
2017-10-02T04:44:56.704Z,18.97
2017-10-02T04:47:23.157Z,20.30
2017-10-02T04:49:49.556Z,17.67
2017-10-02T04:52:17.442Z,16.83
2017-10-02T04:54:44.616Z,17.77
2017-10-02T04:57:11.062Z,18.40
2017-10-02T04:59:37.502Z,15.97
2017-10-02T05:02:04.012Z,17.60
2017-10-02T05:04:30.448Z,15.23
2017-10-02T05:06:56.885Z,17.07
2017-10-02T05:09:23.313Z,15.67
2017-10-02T05:11:49.741Z,16.73
2017-10-02T05:14:16.208Z,16.70
2017-10-02T05:16:43.427Z,18.10
2017-10-02T05:19:09.879Z,17.87
2017-10-02T05:21:36.287Z,18.57
2017-10-02T05:24:02.698Z,18.30
2017-10-02T05:26:29.871Z,20.53
2017-10-02T05:28:56.279Z,19.50
2017-10-02T05:31:23.512Z,20.00
2017-10-02T05:33:50.688Z,19.10
2017-10-02T05:36:17.851Z,15.93
2017-10-02T05:38:44.241Z,16.63
2017-10-02T05:41:10.652Z,17.50
2017-10-02T05:43:37.082Z,16.20
2017-10-02T05:46:03.500Z,18.30
2017-10-02T05:48:29.916Z,19.17
2017-10-02T05:50:56.375Z,17.27
2017-10-02T05:53:22.812Z,17.40
2017-10-02T05:55:49.245Z,17.23
2017-10-02T05:58:15.670Z,16.90
2017-10-02T06:00:42.100Z,16.23
2017-10-02T06:03:08.549Z,18.07
2017-10-02T06:05:34.960Z,20.60
2017-10-02T06:08:01.375Z,21.00
2017-10-02T06:10:27.792Z,20.80
2017-10-02T06:12:54.959Z,25.37
2017-10-02T06:15:21.523Z,22.47
2017-10-02T06:17:47.994Z,20.40
2017-10-02T06:20:15.198Z,21.40
2017-10-02T06:22:41.600Z,21.43
2017-10-02T06:25:08.796Z,21.10
2017-10-02T06:27:35.187Z,21.97
2017-10-02T06:30:02.406Z,20.90
2017-10-02T06:32:30.351Z,18.87
2017-10-02T06:34:58.257Z,19.33
2017-10-02T06:37:25.430Z,20.20
2017-10-02T06:39:51.868Z,20.70
2017-10-02T06:42:18.307Z,19.43
2017-10-02T06:44:44.753Z,22.13
2017-10-02T06:47:11.984Z,20.50
2017-10-02T06:49:38.382Z,21.17
2017-10-02T06:52:04.804Z,19.80
2017-10-02T06:54:32.690Z,23.57
2017-10-02T06:56:59.837Z,24.70
2017-10-02T06:59:26.995Z,21.90
2017-10-02T07:01:54.173Z,22.70
2017-10-02T07:04:20.565Z,22.97
2017-10-02T07:06:46.988Z,21.13
2017-10-02T07:09:13.398Z,22.90
2017-10-02T07:11:39.801Z,23.57
2017-10-02T07:14:06.252Z,23.80
2017-10-02T07:16:32.673Z,21.80
2017-10-02T07:18:59.141Z,22.57
2017-10-02T07:21:25.585Z,21.63
2017-10-02T07:23:52.809Z,23.20
2017-10-02T07:28:47.619Z,24.13
2017-10-02T07:31:14.018Z,23.30
2017-10-02T07:33:40.416Z,23.00
2017-10-02T07:36:06.831Z,21.30
2017-10-02T07:38:33.250Z,23.10
2017-10-02T07:40:59.657Z,22.53
2017-10-02T07:43:26.080Z,24.00
2017-10-02T07:45:53.231Z,22.57
2017-10-02T07:48:19.616Z,22.57
2017-10-02T07:50:46.023Z,21.00
2017-10-02T07:53:12.437Z,21.20
2017-10-02T07:55:38.887Z,22.80
2017-10-02T07:58:05.349Z,21.47
2017-10-02T08:00:31.756Z,24.10
2017-10-02T08:02:58.208Z,22.20
2017-10-02T08:05:24.633Z,20.47
2017-10-02T08:07:51.053Z,20.10
2017-10-02T08:10:17.457Z,21.53
2017-10-02T08:12:43.851Z,22.60
2017-10-02T08:15:10.264Z,21.17
2017-10-02T08:17:36.703Z,21.60
2017-10-02T08:20:03.411Z,20.10
2017-10-02T08:22:29.832Z,20.80
2017-10-02T08:24:56.254Z,21.60
2017-10-02T08:27:23.421Z,21.67
2017-10-02T08:29:49.851Z,19.30
2017-10-02T08:32:16.315Z,20.80
2017-10-02T08:34:42.715Z,22.13
2017-10-02T08:37:09.221Z,20.53
2017-10-02T08:39:36.357Z,18.70
2017-10-02T08:42:02.813Z,18.43
2017-10-02T08:44:29.978Z,20.07
2017-10-02T08:46:57.136Z,20.67
2017-10-02T08:49:23.533Z,19.17
2017-10-02T08:51:49.921Z,22.23
2017-10-02T08:54:16.347Z,19.13
2017-10-02T08:56:42.762Z,21.73
2017-10-02T08:59:09.169Z,20.37
2017-10-02T09:01:35.812Z,22.27
2017-10-02T09:04:02.979Z,20.23
2017-10-02T09:06:29.425Z,21.97
2017-10-02T09:08:55.947Z,19.10
2017-10-02T09:11:22.449Z,20.20
2017-10-02T09:13:49.658Z,20.97
2017-10-02T09:16:16.064Z,20.77
2017-10-02T09:18:42.476Z,19.80
2017-10-02T09:21:09.649Z,19.23
2017-10-02T09:23:36.083Z,20.43
2017-10-02T09:26:02.480Z,21.20
2017-10-02T09:28:28.900Z,20.40
2017-10-02T09:30:55.319Z,21.20
2017-10-02T09:33:21.754Z,19.33
2017-10-02T09:35:48.257Z,20.37
2017-10-02T09:38:14.695Z,19.80
2017-10-02T09:40:41.150Z,19.23
2017-10-02T09:43:07.622Z,19.57
2017-10-02T09:45:34.777Z,18.90
2017-10-02T09:48:01.913Z,18.63
2017-10-02T09:50:28.318Z,19.63
2017-10-02T09:52:54.710Z,19.57
2017-10-02T09:55:21.155Z,19.27
2017-10-02T09:57:47.553Z,17.50
2017-10-02T10:00:14.769Z,19.40
2017-10-02T10:02:41.173Z,18.47
2017-10-02T10:05:07.592Z,16.80
2017-10-02T10:07:34.805Z,17.47
2017-10-02T10:10:01.223Z,16.67
2017-10-02T10:12:27.655Z,16.70
2017-10-02T10:14:54.054Z,16.43
2017-10-02T10:17:20.480Z,15.57
2017-10-02T10:19:46.891Z,16.10
2017-10-02T10:22:14.045Z,15.17
2017-10-02T10:24:41.211Z,15.97
2017-10-02T10:27:07.616Z,16.30
2017-10-02T10:29:35.728Z,16.50
2017-10-02T10:32:02.147Z,13.90
2017-10-02T10:34:28.612Z,16.03
2017-10-02T10:36:55.054Z,18.00
2017-10-02T10:39:21.494Z,14.80
2017-10-02T10:41:47.942Z,14.93
2017-10-02T10:44:14.372Z,15.43
2017-10-02T10:46:40.824Z,14.57
2017-10-02T10:49:07.300Z,14.40
2017-10-02T10:51:33.725Z,13.03
2017-10-02T10:54:00.154Z,12.63
2017-10-02T10:56:26.585Z,14.30
2017-10-02T10:58:53.759Z,13.20
2017-10-02T11:01:20.236Z,14.30
2017-10-02T11:03:46.616Z,11.77
2017-10-02T11:06:13.004Z,11.93
2017-10-02T11:08:39.426Z,10.70
2017-10-02T11:11:05.882Z,11.20
2017-10-02T11:13:33.028Z,12.20
2017-10-02T11:16:00.174Z,11.13
2017-10-02T11:18:27.313Z,11.57
2017-10-02T11:20:53.730Z,11.53
2017-10-02T11:23:20.135Z,10.70
2017-10-02T11:25:46.534Z,10.87
2017-10-02T11:28:13.683Z,10.23
2017-10-02T11:30:40.848Z,10.30
2017-10-02T11:33:07.258Z,10.13
2017-10-02T11:35:34.406Z,10.90
2017-10-02T11:38:01.556Z,10.60
2017-10-02T11:40:27.986Z,10.77
2017-10-02T11:42:54.388Z,11.57
2017-10-02T11:45:20.801Z,10.70
2017-10-02T11:47:47.209Z,9.70
2017-10-02T11:50:13.684Z,14.67
2017-10-02T11:52:40.073Z,12.93
2017-10-02T11:55:06.463Z,11.73
2017-10-02T11:57:32.888Z,11.70
2017-10-02T11:59:59.343Z,11.73
2017-10-02T12:02:26.507Z,11.70
2017-10-02T12:04:53.689Z,11.77
2017-10-02T12:07:20.117Z,11.80
2017-10-02T12:09:46.520Z,11.80
2017-10-02T12:12:13.655Z,12.60
2017-10-02T12:14:41.571Z,13.40
2017-10-02T12:17:07.990Z,12.30
2017-10-02T12:19:34.405Z,13.47
2017-10-02T12:22:01.625Z,11.70
2017-10-02T12:24:28.029Z,11.70
2017-10-02T12:26:54.444Z,11.60
2017-10-02T12:29:20.835Z,12.10
2017-10-02T12:31:47.265Z,11.90
2017-10-02T12:34:13.672Z,13.10
2017-10-02T12:36:40.072Z,11.63
2017-10-02T12:39:06.470Z,11.87
2017-10-02T12:41:32.858Z,11.40
2017-10-02T12:43:59.257Z,11.10
2017-10-02T12:46:26.420Z,11.77
2017-10-02T12:48:52.804Z,11.17
2017-10-02T12:51:19.223Z,10.40
2017-10-02T12:53:45.656Z,11.63
2017-10-02T12:56:12.079Z,10.60
2017-10-02T12:58:38.455Z,10.73
2017-10-02T13:01:04.847Z,11.10
2017-10-02T13:03:31.268Z,11.00
2017-10-02T13:05:57.722Z,10.00
2017-10-02T13:08:24.149Z,9.60
2017-10-02T13:10:50.557Z,10.47
2017-10-02T13:13:16.987Z,10.60
2017-10-02T13:15:43.425Z,10.03
2017-10-02T13:18:09.831Z,10.40
2017-10-02T13:20:36.988Z,8.80
2017-10-02T13:23:04.166Z,9.47
2017-10-02T13:25:30.566Z,9.50
2017-10-02T13:27:57.680Z,10.00
2017-10-02T13:30:24.093Z,8.60
2017-10-02T13:32:50.532Z,9.60
2017-10-02T13:35:16.966Z,8.90
2017-10-02T13:37:43.401Z,8.90
2017-10-02T13:40:09.786Z,9.40
2017-10-02T13:42:36.916Z,9.30
2017-10-02T13:45:04.133Z,8.37
2017-10-02T13:47:30.565Z,8.83
2017-10-02T13:49:57.009Z,9.50
2017-10-02T13:52:23.405Z,9.57
2017-10-02T13:54:49.835Z,9.23
2017-10-02T13:57:16.250Z,8.90
2017-10-02T13:59:43.435Z,9.20
2017-10-02T14:02:09.873Z,8.50
2017-10-02T14:04:36.313Z,11.70
2017-10-02T14:07:02.760Z,9.13
2017-10-02T14:09:29.148Z,10.03
2017-10-02T14:11:55.581Z,9.30
2017-10-02T14:14:22.009Z,9.30
2017-10-02T14:16:48.387Z,9.70
2017-10-02T14:19:14.774Z,10.80
2017-10-02T14:21:41.168Z,9.50
2017-10-02T14:24:07.535Z,10.07
2017-10-02T14:26:33.941Z,11.10
2017-10-02T14:29:01.207Z,9.03
2017-10-02T14:31:28.394Z,10.47
2017-10-02T14:33:54.803Z,11.27
2017-10-02T14:36:21.188Z,11.00
2017-10-02T14:38:47.601Z,9.70
2017-10-02T14:41:14.107Z,10.33
2017-10-02T14:43:40.535Z,9.43
2017-10-02T14:46:06.953Z,9.40
2017-10-02T14:48:34.085Z,9.80
2017-10-02T14:51:00.509Z,9.47
2017-10-02T14:53:26.898Z,9.60
2017-10-02T14:55:53.368Z,9.50
2017-10-02T14:58:19.799Z,9.00
2017-10-02T15:00:46.195Z,9.40
2017-10-02T15:03:12.593Z,8.43
2017-10-02T15:05:38.976Z,8.23
2017-10-02T15:08:05.388Z,9.60
2017-10-02T15:10:31.792Z,8.20
2017-10-02T15:12:58.964Z,8.63
2017-10-02T15:15:26.080Z,9.23
2017-10-02T15:17:52.497Z,9.17
2017-10-02T15:20:18.912Z,8.40
2017-10-02T15:22:45.301Z,8.93
2017-10-02T15:25:12.467Z,9.30
2017-10-02T15:27:38.850Z,9.90
2017-10-02T15:30:05.272Z,8.17
2017-10-02T15:32:31.684Z,8.73
2017-10-02T15:34:58.074Z,10.20
2017-10-02T15:37:25.209Z,10.37
2017-10-02T15:39:51.619Z,9.20
2017-10-02T15:42:18.055Z,9.30
2017-10-02T15:44:44.503Z,9.40
2017-10-02T15:47:10.959Z,9.40
2017-10-02T15:49:38.132Z,8.27
2017-10-02T15:52:04.542Z,11.93
2017-10-02T15:54:31.680Z,11.17
2017-10-02T15:56:58.165Z,10.53
2017-10-02T15:59:24.617Z,21.60
2017-10-02T16:01:51.014Z,16.77
2017-10-02T16:04:17.451Z,15.50
2017-10-02T16:06:44.840Z,12.30
2017-10-02T16:09:11.250Z,11.83
2017-10-02T16:11:37.663Z,14.20
2017-10-02T16:14:04.098Z,17.83
2017-10-02T16:16:30.532Z,32.47
2017-10-02T16:18:56.930Z,20.00
2017-10-02T16:21:24.127Z,41.90
2017-10-02T16:23:50.512Z,14.77
2017-10-02T16:26:16.928Z,12.67
2017-10-02T16:28:43.381Z,11.03
2017-10-02T16:31:10.570Z,10.23
2017-10-02T16:33:37.011Z,10.73
2017-10-02T16:36:03.430Z,9.70
2017-10-02T16:38:29.869Z,10.20
2017-10-02T16:40:56.291Z,9.20
2017-10-02T16:43:22.693Z,10.50
2017-10-02T16:45:49.096Z,16.90
2017-10-02T16:48:15.479Z,15.13
2017-10-02T16:50:42.644Z,10.97
2017-10-02T16:53:09.804Z,18.30
2017-10-02T16:55:36.197Z,20.60
2017-10-02T16:58:02.597Z,23.47
2017-10-02T17:00:29.007Z,21.43
2017-10-02T17:02:55.431Z,24.83
2017-10-02T17:05:22.880Z,15.30
2017-10-02T17:07:49.585Z,68.60
2017-10-02T17:10:16.034Z,169.33
2017-10-02T17:12:42.432Z,82.83
2017-10-02T17:15:08.864Z,29.20
2017-10-02T17:17:35.738Z,16.23
2017-10-02T17:20:02.940Z,21.33
2017-10-02T17:22:29.373Z,16.73
2017-10-02T17:24:55.780Z,15.87
2017-10-02T17:27:24.034Z,16.30
2017-10-02T17:29:51.928Z,15.07
2017-10-02T17:32:18.391Z,12.40
2017-10-02T17:34:44.816Z,11.60
2017-10-02T17:37:11.330Z,10.50
2017-10-02T17:39:38.692Z,10.70
2017-10-02T17:42:05.712Z,11.30
2017-10-02T17:44:32.910Z,12.90
2017-10-02T17:46:59.307Z,13.20
2017-10-02T17:49:25.714Z,13.30
2017-10-02T17:51:52.110Z,13.20
2017-10-02T17:54:18.628Z,13.13
2017-10-02T17:56:45.056Z,12.67
2017-10-02T17:59:11.464Z,11.60
2017-10-02T18:01:38.620Z,13.70
2017-10-02T18:04:05.406Z,13.87
2017-10-02T18:06:31.825Z,11.43
2017-10-02T18:08:58.243Z,11.93
2017-10-02T18:11:24.643Z,12.73
2017-10-02T18:13:51.852Z,13.00
2017-10-02T18:16:18.274Z,13.23
2017-10-02T18:18:44.689Z,11.17
2017-10-02T18:21:11.108Z,12.97
2017-10-02T18:23:38.292Z,14.53
2017-10-02T18:26:05.132Z,15.13
2017-10-02T18:28:31.550Z,12.90
2017-10-02T18:30:58.292Z,14.43
2017-10-02T18:33:24.728Z,12.90
2017-10-02T18:35:52.023Z,13.70
2017-10-02T18:38:20.994Z,13.43
2017-10-02T18:40:47.478Z,12.87
2017-10-02T18:43:14.732Z,13.60
2017-10-02T18:45:41.193Z,13.97
2017-10-02T18:48:07.647Z,19.27
2017-10-02T18:50:34.153Z,17.10
2017-10-02T18:53:00.615Z,14.20
2017-10-02T18:55:27.112Z,13.20
2017-10-02T18:57:53.569Z,13.80
2017-10-02T19:00:20.040Z,16.10
2017-10-02T19:02:47.267Z,15.20
2017-10-02T19:05:13.686Z,15.77
2017-10-02T19:07:40.134Z,15.90
2017-10-02T19:10:06.588Z,14.93
2017-10-02T19:12:33.862Z,15.30
2017-10-02T19:15:00.373Z,14.67
2017-10-02T19:17:26.807Z,14.73
2017-10-02T19:19:53.242Z,15.37
2017-10-02T19:22:19.640Z,15.80
2017-10-02T19:24:46.063Z,15.83
2017-10-02T19:27:12.462Z,16.50
2017-10-02T19:29:39.601Z,16.00
2017-10-02T19:32:05.999Z,17.20
2017-10-02T19:34:32.394Z,15.90
2017-10-02T19:36:58.808Z,17.57
2017-10-02T19:39:25.207Z,17.83
2017-10-02T19:41:51.597Z,18.03
2017-10-02T19:44:18.751Z,15.97
2017-10-02T19:46:45.142Z,16.60
2017-10-02T19:49:12.372Z,16.77
2017-10-02T19:51:38.783Z,17.60
2017-10-02T19:54:05.196Z,16.50
2017-10-02T19:56:31.694Z,16.63
2017-10-02T19:58:58.154Z,16.63
2017-10-02T20:01:24.568Z,17.37
2017-10-02T20:03:51.782Z,18.07
2017-10-02T20:06:18.199Z,18.27
2017-10-02T20:08:44.596Z,18.97
2017-10-02T20:11:11.736Z,17.10
2017-10-02T20:13:39.600Z,17.00
2017-10-02T20:16:06.754Z,18.23
2017-10-02T20:18:33.188Z,20.97
2017-10-02T20:21:00.336Z,31.30
2017-10-02T20:23:27.550Z,57.97
2017-10-02T20:25:53.976Z,52.73
2017-10-02T20:28:20.411Z,55.60
2017-10-02T20:30:46.794Z,30.70
2017-10-02T20:33:13.936Z,57.13
2017-10-02T20:35:41.095Z,49.87
2017-10-02T20:38:08.236Z,51.43
2017-10-02T20:40:35.417Z,29.73
2017-10-02T20:43:01.827Z,25.00
2017-10-02T20:45:28.966Z,22.90
2017-10-02T20:47:56.109Z,20.33
2017-10-02T20:50:24.009Z,20.10
2017-10-02T20:52:50.418Z,20.23
2017-10-02T20:55:16.821Z,19.63
2017-10-02T20:57:43.254Z,20.90
2017-10-02T21:00:09.882Z,26.17
2017-10-02T21:02:36.314Z,24.33
2017-10-02T21:05:02.756Z,26.00
2017-10-02T21:07:29.158Z,22.73
2017-10-02T21:09:55.556Z,23.13
2017-10-02T21:12:22.778Z,24.47
2017-10-02T21:14:49.196Z,25.00
2017-10-02T21:17:15.634Z,25.47
2017-10-02T21:19:42.062Z,26.80
2017-10-02T21:22:08.468Z,25.97
2017-10-02T21:24:34.901Z,26.23
2017-10-02T21:27:01.300Z,26.40
2017-10-02T21:29:27.706Z,26.13
2017-10-02T21:31:54.118Z,25.60
2017-10-02T21:34:20.542Z,23.57
2017-10-02T21:36:46.951Z,24.50
2017-10-02T21:39:14.090Z,23.97
2017-10-02T21:41:41.284Z,22.20
2017-10-02T21:44:07.844Z,20.83
2017-10-02T21:46:34.256Z,24.23
2017-10-02T21:49:00.659Z,23.53
2017-10-02T21:51:28.027Z,22.70
2017-10-02T21:53:54.447Z,21.13
2017-10-02T21:56:20.833Z,20.90
2017-10-02T21:58:47.250Z,23.40
2017-10-02T22:01:13.736Z,20.20
2017-10-02T22:03:40.230Z,20.03
2017-10-02T22:06:06.672Z,22.87
2017-10-02T22:08:33.063Z,21.30
2017-10-02T22:10:59.480Z,22.60
2017-10-02T22:13:25.889Z,21.13
2017-10-02T22:15:53.014Z,21.93
2017-10-02T22:18:19.414Z,25.47
2017-10-02T22:20:45.830Z,21.60
2017-10-02T22:23:12.235Z,21.10
2017-10-02T22:25:39.384Z,20.70
2017-10-02T22:28:05.790Z,20.90
2017-10-02T22:30:32.216Z,24.33
2017-10-02T22:32:58.622Z,22.57
2017-10-02T22:35:25.091Z,20.43
2017-10-02T22:37:51.503Z,20.93
2017-10-02T22:40:17.897Z,24.97
2017-10-02T22:42:44.296Z,22.07
2017-10-02T22:45:10.694Z,23.40
2017-10-02T22:47:37.098Z,25.10
2017-10-02T22:50:04.254Z,24.73
2017-10-02T22:52:30.657Z,25.23
2017-10-02T22:54:57.812Z,23.70
2017-10-02T22:57:24.197Z,23.23
2017-10-02T22:59:50.595Z,21.30
2017-10-02T23:02:17.004Z,21.63
2017-10-02T23:04:43.399Z,21.50
2017-10-02T23:07:30.206Z,22.20
2017-10-02T23:09:56.649Z,19.40
2017-10-02T23:12:23.065Z,21.70
2017-10-02T23:14:49.451Z,21.13
2017-10-02T23:17:16.625Z,20.10
2017-10-02T23:19:43.059Z,22.50
2017-10-02T23:22:09.466Z,19.53
2017-10-02T23:24:36.609Z,19.00
2017-10-02T23:27:02.992Z,18.20
2017-10-02T23:29:29.404Z,18.03
2017-10-02T23:31:55.809Z,21.80
2017-10-02T23:34:22.961Z,19.43
2017-10-02T23:36:50.105Z,19.40
2017-10-02T23:39:17.254Z,18.20
2017-10-02T23:41:43.639Z,20.07
2017-10-02T23:44:10.030Z,19.97
2017-10-02T23:46:37.161Z,22.47
2017-10-02T23:49:03.609Z,21.87
2017-10-02T23:51:30.778Z,24.17
2017-10-02T23:53:57.932Z,21.20
2017-10-02T23:56:24.533Z,20.67
2017-10-02T23:58:50.928Z,20.73
